createdAt,value
2022-10-05T00:00:02.878Z,7.05
2022-10-05T00:05:20.537Z,6.72
2022-10-05T00:10:24.240Z,6.53
2022-10-05T00:15:30.181Z,7.22
2022-10-05T00:20:33.868Z,7.00
2022-10-05T00:25:37.325Z,7.80
2022-10-05T00:30:42.271Z,8.10
2022-10-05T00:35:45.725Z,6.88
2022-10-05T00:41:07.410Z,6.60
2022-10-05T00:46:19.531Z,6.80
2022-10-05T00:51:28.312Z,7.20
2022-10-05T00:56:48.623Z,7.07
2022-10-05T01:02:02.403Z,6.55
2022-10-05T01:07:16.995Z,7.45
2022-10-05T01:12:28.272Z,7.18
2022-10-05T01:17:41.842Z,7.55
2022-10-05T01:23:08.497Z,6.93
2022-10-05T01:28:19.833Z,7.68
2022-10-05T01:33:31.840Z,8.55
2022-10-05T01:38:45.968Z,8.32
2022-10-05T01:43:56.223Z,8.60
2022-10-05T01:49:29.957Z,8.73
2022-10-05T01:54:45.594Z,8.32
2022-10-05T02:00:03.308Z,8.98
2022-10-05T02:05:22.255Z,8.63
2022-10-05T02:10:30.010Z,8.82
2022-10-05T02:15:41.709Z,8.48
2022-10-05T02:20:47.496Z,9.65
2022-10-05T02:25:54.034Z,8.98
2022-10-05T02:31:05.615Z,9.75
2022-10-05T02:36:15.975Z,9.60
2022-10-05T02:41:36.160Z,9.32
2022-10-05T02:46:49.203Z,9.70
2022-10-05T02:52:00.637Z,9.88
2022-10-05T02:57:11.294Z,10.57
2022-10-05T03:02:22.707Z,10.30
2022-10-05T03:07:33.173Z,10.38
2022-10-05T03:12:50.849Z,10.00
2022-10-05T03:18:08.508Z,10.40
2022-10-05T03:23:22.521Z,10.45
2022-10-05T03:28:34.007Z,10.75
2022-10-05T03:33:47.987Z,10.40
2022-10-05T03:39:00.474Z,10.23
2022-10-05T03:44:30.751Z,10.23
2022-10-05T03:49:49.047Z,9.77
2022-10-05T03:54:57.798Z,9.50
2022-10-05T04:00:06.598Z,10.07
2022-10-05T04:05:31.741Z,8.88
2022-10-05T04:10:43.035Z,8.98
2022-10-05T04:15:55.301Z,9.60
2022-10-05T04:21:06.605Z,9.30
2022-10-05T04:26:15.743Z,8.23
2022-10-05T04:31:39.187Z,9.13
2022-10-05T04:36:51.126Z,8.20
2022-10-05T04:42:07.577Z,9.15
2022-10-05T04:47:30.664Z,8.75
2022-10-05T04:52:44.948Z,8.90
2022-10-05T04:57:56.748Z,13.80
2022-10-05T05:03:30.756Z,9.00
2022-10-05T05:08:51.323Z,8.88
2022-10-05T05:14:33.384Z,8.77
2022-10-05T05:19:49.665Z,8.73
2022-10-05T05:25:20.238Z,8.35
2022-10-05T05:30:32.528Z,8.82
2022-10-05T05:35:56.536Z,9.75
2022-10-05T05:41:09.882Z,8.95
2022-10-05T05:46:34.004Z,9.02
2022-10-05T05:51:54.795Z,9.55
2022-10-05T05:57:09.062Z,8.77
2022-10-05T06:02:17.302Z,15.70
2022-10-05T06:07:30.215Z,9.00
2022-10-05T06:12:42.531Z,8.55
2022-10-05T06:17:50.296Z,7.10
2022-10-05T06:22:58.881Z,6.97
2022-10-05T06:28:11.635Z,7.28
2022-10-05T06:33:33.522Z,6.68
2022-10-05T06:38:54.236Z,7.00
2022-10-05T06:44:01.862Z,6.80
2022-10-05T06:49:34.695Z,7.05
2022-10-05T06:55:07.085Z,7.38
2022-10-05T07:00:19.950Z,7.15
2022-10-05T07:05:50.610Z,6.93
2022-10-05T09:46:44.631Z,4.00
2022-10-05T09:52:25.689Z,3.70
2022-10-05T09:58:02.607Z,3.97
2022-10-05T10:03:46.676Z,3.88
2022-10-05T10:09:07.498Z,3.97
2022-10-05T10:14:29.137Z,3.55
2022-10-05T10:20:10.281Z,3.42
2022-10-05T10:25:43.777Z,3.40
2022-10-05T10:31:13.098Z,3.72
2022-10-05T10:36:29.034Z,4.68
2022-10-05T10:42:05.556Z,3.45
2022-10-05T10:47:42.868Z,2.88
2022-10-05T10:53:05.766Z,3.33
2022-10-05T10:58:40.916Z,3.20
2022-10-05T11:04:16.010Z,2.80
2022-10-05T11:09:40.564Z,2.80
2022-10-05T11:15:13.737Z,2.85
2022-10-05T11:21:00.993Z,2.67
2022-10-05T11:26:20.139Z,3.30
2022-10-05T11:31:39.112Z,3.50
2022-10-05T11:37:06.692Z,2.55
2022-10-05T11:42:44.546Z,2.50
2022-10-05T11:48:12.803Z,2.47
2022-10-05T11:53:23.177Z,2.63
2022-10-05T11:58:34.764Z,2.17
2022-10-05T12:03:46.348Z,2.80
2022-10-05T12:09:00.918Z,2.30
2022-10-05T12:14:12.766Z,1.80
2022-10-05T12:19:27.312Z,2.20
2022-10-05T12:24:55.928Z,2.38
2022-10-05T12:30:06.840Z,2.47
2022-10-05T12:35:36.234Z,1.85
2022-10-05T12:40:47.118Z,2.55
2022-10-05T12:46:01.253Z,1.88
2022-10-05T12:51:10.562Z,2.10
2022-10-05T12:56:24.516Z,1.90
2022-10-05T13:01:38.888Z,2.33
2022-10-05T13:06:47.217Z,1.80
2022-10-05T13:11:54.296Z,1.90
2022-10-05T13:17:04.252Z,1.98
2022-10-05T13:22:23.386Z,2.08
2022-10-05T13:27:30.503Z,1.70
2022-10-05T13:32:40.213Z,1.85
2022-10-05T13:37:55.317Z,1.75
2022-10-05T13:43:04.858Z,2.92
2022-10-05T13:48:24.225Z,2.00
2022-10-05T13:53:34.673Z,1.80
2022-10-05T13:58:46.190Z,1.73
2022-10-05T14:09:30.781Z,1.50
2022-10-05T14:14:44.685Z,1.60
2022-10-05T14:19:51.209Z,1.67
2022-10-05T14:25:08.781Z,1.98
2022-10-05T14:30:22.086Z,2.25
2022-10-05T14:35:26.804Z,1.98
2022-10-05T14:40:34.584Z,2.63
2022-10-05T14:45:54.311Z,2.05
2022-10-05T14:50:59.523Z,2.10
2022-10-05T14:56:33.192Z,1.83
2022-10-05T15:01:41.371Z,1.92
2022-10-05T15:06:55.269Z,1.60
2022-10-05T15:12:03.312Z,1.60
2022-10-05T15:17:17.395Z,1.60
2022-10-05T15:22:29.773Z,1.50
2022-10-05T15:27:45.216Z,1.90
2022-10-05T15:33:04.319Z,2.10
2022-10-05T15:38:21.099Z,2.08
2022-10-05T15:43:27.548Z,1.95
2022-10-05T15:48:42.407Z,1.88
2022-10-05T15:54:13.565Z,1.63
2022-10-05T16:04:42.672Z,1.67
2022-10-05T16:09:56.286Z,1.40
2022-10-05T16:15:17.578Z,1.60
2022-10-05T16:20:36.727Z,1.50
2022-10-05T16:25:53.150Z,1.30
2022-10-05T16:31:07.145Z,1.90
2022-10-05T16:36:22.551Z,1.75
2022-10-05T16:41:37.339Z,1.33
2022-10-05T16:46:46.757Z,1.48
2022-10-05T16:51:59.195Z,1.52
2022-10-05T16:57:11.297Z,1.23
2022-10-05T17:02:29.913Z,1.67
2022-10-05T17:07:49.891Z,1.25
2022-10-05T17:13:03.528Z,1.80
2022-10-05T17:18:27.445Z,1.60
2022-10-05T17:23:51.335Z,1.80
2022-10-05T17:29:01.106Z,2.15
2022-10-05T17:34:28.425Z,1.60
2022-10-05T17:39:52.347Z,2.33
2022-10-05T17:44:56.102Z,1.90
2022-10-05T17:50:19.051Z,1.92
2022-10-05T17:55:38.349Z,1.80
2022-10-05T18:01:04.890Z,1.80
2022-10-05T18:06:33.387Z,1.85
2022-10-05T18:11:41.530Z,1.63
2022-10-05T18:16:58.678Z,1.90
2022-10-05T18:22:15.358Z,2.00
2022-10-05T18:27:34.314Z,1.70
2022-10-05T18:33:00.972Z,2.00
2022-10-05T18:38:17.209Z,1.98
2022-10-05T18:43:31.730Z,2.08
2022-10-05T18:48:47.871Z,2.13
2022-10-05T18:54:07.229Z,1.90
2022-10-05T18:59:28.380Z,1.88
2022-10-05T19:09:58.448Z,1.77
2022-10-05T19:15:10.719Z,1.95
2022-10-05T19:20:23.158Z,1.88
2022-10-05T19:25:37.768Z,2.22
2022-10-05T19:30:54.882Z,2.10
2022-10-05T19:36:10.033Z,2.15
2022-10-05T19:41:18.834Z,2.03
2022-10-05T19:46:30.827Z,3.80
2022-10-05T19:51:38.032Z,2.15
2022-10-05T19:56:50.534Z,2.55
2022-10-05T20:01:57.174Z,2.15
2022-10-05T20:07:02.157Z,2.45
2022-10-05T20:12:07.230Z,2.15
2022-10-05T20:17:44.695Z,2.20
2022-10-05T20:22:48.195Z,2.10
2022-10-05T20:27:55.569Z,1.80
2022-10-05T20:33:01.487Z,1.70
2022-10-05T20:38:04.907Z,1.80
2022-10-05T20:43:09.799Z,2.17
2022-10-05T20:48:15.830Z,0.50
2022-10-05T20:53:19.577Z,0.50
2022-10-05T20:58:24.760Z,0.30
2022-10-05T21:03:28.539Z,0.57
2022-10-05T21:08:32.059Z,0.70
2022-10-05T21:13:38.657Z,2.78
2022-10-05T21:18:42.707Z,0.95
2022-10-05T21:23:46.744Z,0.52
2022-10-05T21:28:51.592Z,0.70
2022-10-05T21:33:55.752Z,1.42
2022-10-05T21:38:59.286Z,0.90
2022-10-05T21:44:04.127Z,0.95
2022-10-05T21:49:08.256Z,0.80
2022-10-05T21:54:15.094Z,1.10
2022-10-05T21:59:23.375Z,0.80
2022-10-05T22:04:27.240Z,0.80
2022-10-05T22:09:30.736Z,1.80
2022-10-05T22:14:35.488Z,0.98
2022-10-05T22:19:38.954Z,1.33
2022-10-05T22:24:42.423Z,1.20
2022-10-05T22:29:47.586Z,1.02
2022-10-05T22:34:51.688Z,1.50
2022-10-05T22:39:55.680Z,1.70
2022-10-05T22:45:00.652Z,1.30
2022-10-05T22:50:04.137Z,1.42
2022-10-05T22:55:08.372Z,1.42
2022-10-05T23:00:14.375Z,1.40
2022-10-05T23:05:18.111Z,1.33
2022-10-05T23:10:21.525Z,1.17
2022-10-05T23:15:27.060Z,1.77
2022-10-05T23:20:30.591Z,1.70
2022-10-05T23:25:34.413Z,1.27
2022-10-05T23:30:39.243Z,1.58
2022-10-05T23:35:42.752Z,1.30
2022-10-05T23:40:47.423Z,1.52
2022-10-05T23:45:52.258Z,1.42
2022-10-05T23:50:56.325Z,1.40
2022-10-05T23:55:59.844Z,1.55
